Time;durP1;ratioP1;P1;durP2;ratioP2;P2;SDS_P1;SDS_P2;PMS_P1;PMS_P2;Temp;Humidity;BMP_temperature;BMP_pressure;BME280_temperature;BME280_humidity;BME280_pressure;Samples;Min_cycle;Max_cycle;Signal;HPM_P1;HPM_P2
2022/02/08 00:00:40;;;;;;;7.95;3.83;;;0.50;99.90;;;;;;5007102;28;20032;-71
2022/02/08 00:03:06;;;;;;;6.90;3.50;;;0.50;99.90;;;;;;5012032;28;20104;-72
2022/02/08 00:05:32;;;;;;;13.70;4.07;;;0.40;99.90;;;;;;5011948;28;20029;-72
2022/02/08 00:07:57;;;;;;;10.00;4.35;;;0.50;99.90;;;;;;5011921;28;20033;-71
2022/02/08 00:10:26;;;;;;;9.88;3.70;;;0.50;99.90;;;;;;5010106;28;20026;-73
2022/02/08 00:12:52;;;;;;;11.18;3.92;;;0.40;99.90;;;;;;5020061;28;20036;-72
2022/02/08 00:15:17;;;;;;;8.52;4.20;;;0.30;99.90;;;;;;5014203;28;20022;-72
2022/02/08 00:17:43;;;;;;;11.38;4.07;;;0.30;99.90;;;;;;5010268;28;20072;-72
2022/02/08 00:20:09;;;;;;;10.20;3.90;;;0.40;99.90;;;;;;5008258;28;20018;-72
2022/02/08 00:22:36;;;;;;;8.02;3.92;;;0.40;99.90;;;;;;5020806;28;20029;-72
2022/02/08 00:25:03;;;;;;;12.02;4.22;;;0.40;99.90;;;;;;5023491;28;20427;-73
2022/02/08 00:27:28;;;;;;;11.35;4.32;;;0.50;99.90;;;;;;5010399;28;20504;-73
2022/02/08 00:29:54;;;;;;;10.25;4.20;;;0.50;99.90;;;;;;5011516;28;20026;-72
2022/02/08 00:32:20;;;;;;;12.15;4.40;;;0.60;99.90;;;;;;5011590;28;20026;-72
2022/02/08 00:34:45;;;;;;;12.40;4.53;;;0.60;99.90;;;;;;5010169;28;20471;-72
2022/02/08 00:37:11;;;;;;;10.27;5.03;;;0.50;99.90;;;;;;5022407;28;20028;-73
2022/02/08 00:39:37;;;;;;;13.55;4.53;;;0.40;99.90;;;;;;5020036;28;20033;-73
2022/02/08 00:42:06;;;;;;;14.18;4.35;;;0.60;99.90;;;;;;5011964;28;20022;-73
2022/02/08 00:44:40;;;;;;;10.65;4.43;;;0.70;99.90;;;;;;5014312;28;20026;-73
2022/02/08 00:49:50;;;;;;;14.30;4.75;;;0.90;99.90;;;;;;5015591;28;20037;-73
2022/02/08 00:52:16;;;;;;;12.38;4.05;;;0.90;99.90;;;;;;5015554;28;20018;-73
2022/02/08 00:54:47;;;;;;;10.02;3.72;;;0.90;99.90;;;;;;5021427;28;20034;-73
2022/02/08 00:57:13;;;;;;;14.00;3.85;;;0.90;99.90;;;;;;5015206;28;20399;-71
2022/02/08 00:59:38;;;;;;;10.55;4.30;;;1.00;99.90;;;;;;5015067;28;20041;-71
2022/02/08 01:02:05;;;;;;;7.85;3.95;;;1.10;99.90;;;;;;5022532;28;20025;-72
2022/02/08 01:04:31;;;;;;;12.10;4.55;;;1.00;99.90;;;;;;5024358;28;20029;-72
2022/02/08 01:06:58;;;;;;;24.35;5.18;;;1.10;99.90;;;;;;5017115;28;20510;-73
2022/02/08 01:09:44;;;;;;;12.50;4.45;;;1.10;99.90;;;;;;5027190;28;20033;-73
2022/02/08 01:12:10;;;;;;;12.20;4.57;;;1.10;99.90;;;;;;5013926;28;20033;-72
2022/02/08 01:14:41;;;;;;;7.40;4.00;;;1.10;99.90;;;;;;5014834;28;20030;-73
2022/02/08 01:17:09;;;;;;;10.27;4.50;;;1.10;99.90;;;;;;5014798;28;20022;-72
2022/02/08 01:19:38;;;;;;;11.88;4.53;;;1.10;99.90;;;;;;5014850;28;20022;-73
2022/02/08 01:22:04;;;;;;;13.02;3.80;;;1.10;99.90;;;;;;5018369;28;20022;-72
2022/02/08 01:24:29;;;;;;;9.95;4.45;;;1.00;99.90;;;;;;5013603;28;20096;-72
2022/02/08 01:27:06;;;;;;;15.93;4.60;;;1.10;99.90;;;;;;5014637;28;20383;-72
2022/02/08 01:29:53;;;;;;;10.65;4.32;;;1.10;99.90;;;;;;5014773;28;20121;-73
2022/02/08 01:40:08;;;;;;;9.45;3.80;;;1.10;99.90;;;;;;5014454;28;20041;-72
2022/02/08 01:45:43;;;;;;;7.78;4.35;;;1.10;99.90;;;;;;5008166;28;20501;-74
2022/02/08 01:48:27;;;;;;;9.07;3.75;;;1.10;99.90;;;;;;5015088;28;20124;-72
2022/02/08 01:50:55;;;;;;;13.55;4.90;;;1.10;99.90;;;;;;5029717;28;20022;-74
2022/02/08 01:53:22;;;;;;;13.73;4.38;;;1.00;99.90;;;;;;5021530;28;20080;-72
2022/02/08 01:55:47;;;;;;;9.93;4.28;;;1.10;99.90;;;;;;5011454;28;20026;-72
2022/02/08 01:58:13;;;;;;;9.18;4.53;;;1.10;99.90;;;;;;5025284;28;20076;-74
2022/02/08 02:00:39;;;;;;;12.60;4.28;;;1.10;99.90;;;;;;5023452;28;20113;-71
2022/02/08 02:03:04;;;;;;;11.77;4.35;;;1.00;99.90;;;;;;5014457;28;20459;-71
2022/02/08 02:05:30;;;;;;;11.35;4.95;;;1.10;99.90;;;;;;5013970;28;20461;-72
2022/02/08 02:07:58;;;;;;;10.38;4.10;;;1.00;99.90;;;;;;5013950;28;20038;-72
2022/02/08 02:10:24;;;;;;;10.85;5.10;;;;;;;;;;5025162;28;20521;-71
2022/02/08 02:12:57;;;;;;;11.38;4.05;;;1.00;99.90;;;;;;5016875;28;20403;-72
2022/02/08 02:15:24;;;;;;;11.90;4.28;;;1.00;99.90;;;;;;5013701;28;20018;-71
2022/02/08 02:17:50;;;;;;;11.75;4.45;;;1.00;99.90;;;;;;5013568;28;20076;-73
2022/02/08 02:20:16;;;;;;;8.63;4.10;;;1.00;99.90;;;;;;5013746;28;20109;-72
2022/02/08 02:22:42;;;;;;;14.43;4.15;;;1.00;99.90;;;;;;5017303;28;20033;-72
2022/02/08 02:25:22;;;;;;;11.52;4.70;;;0.90;99.90;;;;;;5013580;28;20018;-72
2022/02/08 02:27:49;;;;;;;14.05;4.20;;;1.00;99.90;;;;;;5013585;28;20109;-72
2022/02/08 02:30:15;;;;;;;10.25;4.00;;;1.00;99.90;;;;;;5013360;28;20026;-71
2022/02/08 02:32:41;;;;;;;11.88;4.60;;;;;;;;;;5013485;28;20095;-72
2022/02/08 02:35:07;;;;;;;9.55;4.10;;;1.10;99.90;;;;;;5016138;28;20033;-71
2022/02/08 02:37:33;;;;;;;12.52;4.20;;;;;;;;;;5016923;28;20034;-72
2022/02/08 02:39:59;;;;;;;15.27;4.15;;;1.10;99.90;;;;;;5014200;28;20560;-71
2022/02/08 02:42:27;;;;;;;9.82;3.83;;;1.10;99.90;;;;;;5026597;28;20109;-71
2022/02/08 02:44:52;;;;;;;8.95;3.80;;;1.10;99.90;;;;;;5013438;28;20057;-73
2022/02/08 02:47:18;;;;;;;15.10;4.57;;;1.10;99.90;;;;;;5011315;28;20064;-72
2022/02/08 02:49:43;;;;;;;10.23;3.78;;;1.10;99.90;;;;;;4994035;28;20085;-72
2022/02/08 02:52:09;;;;;;;11.40;3.78;;;1.10;99.90;;;;;;4999922;28;20026;-73
2022/02/08 02:54:35;;;;;;;10.32;3.88;;;1.20;99.90;;;;;;5024823;28;20475;-73
2022/02/08 02:57:01;;;;;;;10.02;3.92;;;1.20;99.90;;;;;;5015014;28;20476;-73
2022/02/08 02:59:31;;;;;;;8.95;4.22;;;1.20;99.90;;;;;;5013209;28;20026;-73
2022/02/08 03:04:49;;;;;;;11.55;3.95;;;1.20;99.90;;;;;;5003417;28;20030;-73
2022/02/08 03:18:36;;;;;;;10.57;3.58;;;1.20;99.90;;;;;;5012949;28;20076;-72
2022/02/08 03:20:56;;;;;;;8.52;3.85;;;1.40;99.90;;;;;;5012388;28;20053;-72
2022/02/08 03:23:22;;;;;;;9.00;3.60;;;1.20;99.90;;;;;;5011902;28;20484;-72
2022/02/08 03:25:47;;;;;;;8.93;3.58;;;1.20;99.90;;;;;;5014207;28;20081;-73
2022/02/08 03:28:13;;;;;;;9.05;3.30;;;1.20;99.90;;;;;;5022379;28;20057;-73
2022/02/08 03:30:39;;;;;;;10.70;4.00;;;1.20;99.90;;;;;;5018642;28;20029;-72
2022/02/08 03:33:05;;;;;;;9.55;3.90;;;1.20;99.90;;;;;;5022456;28;20104;-72
2022/02/08 03:35:30;;;;;;;9.07;3.55;;;1.20;99.90;;;;;;5020083;28;20029;-73
2022/02/08 03:38:00;;;;;;;10.95;3.92;;;1.10;99.90;;;;;;5021204;28;20022;-74
2022/02/08 03:43:00;;;;;;;9.80;3.92;;;1.20;99.90;;;;;;5012675;28;20022;-73
2022/02/08 03:45:25;;;;;;;11.70;3.92;;;1.20;99.90;;;;;;5011388;28;20113;-72
2022/02/08 03:47:51;;;;;;;14.05;4.25;;;1.20;99.90;;;;;;5044397;28;20108;-72
2022/02/08 03:50:16;;;;;;;10.88;3.67;;;1.20;99.90;;;;;;5012868;28;20542;-72
2022/02/08 03:52:42;;;;;;;12.05;4.55;;;1.30;99.90;;;;;;5020330;28;20036;-74
2022/02/08 03:55:08;;;;;;;10.40;4.18;;;1.40;99.90;;;;;;5043781;28;20122;-73
2022/02/08 03:57:34;;;;;;;12.98;4.68;;;1.30;99.90;;;;;;5012578;28;20018;-73
2022/02/08 03:59:59;;;;;;;13.45;5.03;;;1.30;99.90;;;;;;5044141;28;20026;-74
2022/02/08 04:02:40;;;;;;;11.40;5.53;;;1.30;99.90;;;;;;5012078;28;20471;-73
2022/02/08 04:05:18;;;;;;;18.42;6.50;;;1.30;99.90;;;;;;5010388;28;20076;-71
2022/02/08 04:07:49;;;;;;;18.92;7.13;;;1.30;99.90;;;;;;5003280;28;20518;-72
2022/02/08 04:10:21;;;;;;;14.32;5.97;;;1.30;99.90;;;;;;5030622;28;20376;-73
2022/02/08 04:18:21;;;;;;;14.43;4.72;;;1.30;99.90;;;;;;5012322;28;20057;-71
2022/02/08 04:31:28;;;;;;;15.50;4.45;;;1.30;99.90;;;;;;5012316;28;20498;-73
2022/02/08 04:40:13;;;;;;;7.60;3.42;;;1.40;99.90;;;;;;5012125;28;20104;-73
2022/02/08 04:42:58;;;;;;;12.55;4.57;;;1.40;99.90;;;;;;5010511;28;20488;-72
2022/02/08 04:45:31;;;;;;;10.60;3.75;;;1.50;99.90;;;;;;5011721;28;20026;-73
2022/02/08 04:50:24;;;;;;;12.07;4.07;;;1.50;99.90;;;;;;5011686;28;20541;-72
2022/02/08 04:52:51;;;;;;;12.18;3.72;;;1.50;99.90;;;;;;5011641;28;20026;-72
2022/02/08 04:55:38;;;;;;;8.82;4.03;;;1.50;99.90;;;;;;4996833;28;20468;-73
2022/02/08 05:29:21;;;;;;;15.85;5.97;;;1.60;99.90;;;;;;5021008;28;20033;-73
2022/02/08 05:37:14;;;;;;;12.73;5.32;;;1.70;99.90;;;;;;5015039;28;20073;-72
2022/02/08 05:44:38;;;;;;;11.65;4.63;;;1.70;99.90;;;;;;5016484;28;20030;-73
2022/02/08 05:47:04;;;;;;;10.00;4.43;;;1.70;99.90;;;;;;5014317;28;20021;-72
2022/02/08 05:49:41;;;;;;;10.80;4.45;;;1.80;99.90;;;;;;5011643;28;20084;-72
2022/02/08 05:54:39;;;;;;;12.32;4.30;;;1.80;99.90;;;;;;5026296;28;20069;-73
2022/02/08 05:57:05;;;;;;;14.00;5.78;;;1.80;99.90;;;;;;5016634;28;20076;-73
2022/02/08 05:59:31;;;;;;;14.93;5.22;;;1.90;99.90;;;;;;5004949;28;20369;-73
2022/02/08 06:01:57;;;;;;;12.55;5.65;;;1.90;99.90;;;;;;5009369;28;20034;-73
2022/02/08 06:04:22;;;;;;;17.80;7.65;;;1.80;99.90;;;;;;5023652;28;20132;-72
2022/02/08 06:06:48;;;;;;;13.55;7.20;;;1.90;99.90;;;;;;5001054;28;20480;-72
2022/02/08 06:09:14;;;;;;;16.08;6.78;;;1.80;99.90;;;;;;5014305;28;20033;-73
2022/02/08 06:11:40;;;;;;;13.90;5.53;;;1.80;99.90;;;;;;5001139;28;20026;-72
2022/02/08 06:14:06;;;;;;;10.00;4.60;;;1.80;99.90;;;;;;5014394;28;20626;-72
2022/02/08 06:16:33;;;;;;;12.77;4.10;;;1.80;99.90;;;;;;5011315;28;20041;-72
2022/02/08 06:18:58;;;;;;;12.98;4.32;;;1.90;99.90;;;;;;5004162;28;20072;-73
2022/02/08 06:21:24;;;;;;;11.73;4.10;;;1.90;99.90;;;;;;4999389;28;20030;-72
2022/02/08 06:23:49;;;;;;;15.55;4.38;;;1.80;99.90;;;;;;5005129;28;20064;-72
2022/02/08 06:26:16;;;;;;;10.85;5.10;;;1.80;99.90;;;;;;5006207;28;20034;-72
2022/02/08 06:28:42;;;;;;;13.35;4.72;;;1.80;99.90;;;;;;5013801;28;20137;-72
2022/02/08 06:31:09;;;;;;;13.63;5.22;;;1.80;99.90;;;;;;5010850;28;20046;-72
2022/02/08 06:33:35;;;;;;;8.63;4.65;;;1.90;99.90;;;;;;5003317;28;20022;-72
2022/02/08 06:36:00;;;;;;;18.40;8.60;;;1.80;99.90;;;;;;5017217;28;20543;-72
2022/02/08 06:38:26;;;;;;;16.08;7.07;;;1.80;99.90;;;;;;5013216;28;20076;-72
2022/02/08 06:40:53;;;;;;;10.25;6.22;;;1.90;99.90;;;;;;4999878;28;20018;-72
2022/02/08 06:43:20;;;;;;;14.13;6.43;;;1.90;99.90;;;;;;5013598;28;20048;-72
2022/02/08 06:45:46;;;;;;;18.63;6.47;;;1.80;99.90;;;;;;5013480;28;20030;-72
2022/02/08 06:48:12;;;;;;;13.40;5.60;;;1.90;99.90;;;;;;5004242;28;20076;-72
2022/02/08 06:50:38;;;;;;;10.82;5.00;;;1.90;99.90;;;;;;5006948;28;20459;-72
2022/02/08 06:53:04;;;;;;;12.93;5.22;;;1.90;99.90;;;;;;5003451;28;20029;-72
2022/02/08 06:55:30;;;;;;;11.60;4.68;;;1.90;99.90;;;;;;5012135;28;20018;-72
2022/02/08 07:00:32;;;;;;;14.18;5.05;;;1.90;99.90;;;;;;5003251;28;20025;-72
2022/02/08 07:02:59;;;;;;;20.17;5.53;;;1.90;99.90;;;;;;5022376;28;20028;-74
2022/02/08 07:05:24;;;;;;;12.80;4.90;;;1.90;99.90;;;;;;5008626;28;20088;-71
2022/02/08 07:07:50;;;;;;;11.68;4.70;;;1.90;99.90;;;;;;5005111;28;20123;-73
2022/02/08 07:10:15;;;;;;;12.52;4.50;;;1.90;99.90;;;;;;5007945;28;20030;-72
2022/02/08 07:12:42;;;;;;;15.07;5.28;;;1.90;99.90;;;;;;5004941;28;20022;-71
2022/02/08 07:15:12;;;;;;;13.50;5.07;;;2.00;99.90;;;;;;4999330;28;20403;-73
2022/02/08 07:17:38;;;;;;;13.10;5.50;;;2.00;99.90;;;;;;5011582;28;20031;-72
2022/02/08 07:20:05;;;;;;;12.60;4.90;;;2.00;99.90;;;;;;4999865;28;20029;-72
2022/02/08 07:22:31;;;;;;;11.32;5.07;;;2.00;99.90;;;;;;5015174;28;20018;-73
2022/02/08 07:24:58;;;;;;;10.20;5.05;;;2.10;99.90;;;;;;5012440;28;20022;-72
2022/02/08 07:27:24;;;;;;;11.85;5.13;;;2.10;99.90;;;;;;5022385;28;20022;-72
2022/02/08 07:29:53;;;;;;;20.73;7.13;;;2.00;99.90;;;;;;5021770;28;20033;-72
2022/02/08 07:32:28;;;;;;;12.73;4.95;;;2.10;99.90;;;;;;5017669;28;20124;-72
2022/02/08 07:35:07;;;;;;;10.70;4.78;;;2.10;99.90;;;;;;5021054;28;20030;-72
2022/02/08 07:37:45;;;;;;;12.65;5.10;;;2.10;99.90;;;;;;5012532;28;20053;-72
2022/02/08 07:43:06;;;;;;;12.88;5.07;;;2.00;99.90;;;;;;4980867;28;20121;-72
2022/02/08 07:45:32;;;;;;;16.45;4.90;;;2.10;99.90;;;;;;5012421;28;20124;-72
2022/02/08 07:47:57;;;;;;;9.23;4.55;;;2.10;99.90;;;;;;5012356;28;20044;-72
2022/02/08 07:50:25;;;;;;;14.57;5.05;;;2.00;99.90;;;;;;4997781;28;20030;-72
2022/02/08 07:52:52;;;;;;;14.75;5.43;;;2.00;99.90;;;;;;5011195;28;20018;-73
2022/02/08 07:55:22;;;;;;;12.10;5.43;;;2.10;99.90;;;;;;5012504;28;20034;-72
2022/02/08 07:57:48;;;;;;;18.92;6.07;;;2.00;99.90;;;;;;5003986;28;20480;-72
2022/02/08 08:00:14;;;;;;;15.70;5.72;;;2.00;99.90;;;;;;5008118;28;20029;-72
2022/02/08 08:02:40;;;;;;;16.30;5.72;;;2.10;99.90;;;;;;5012979;28;20030;-72
2022/02/08 08:05:07;;;;;;;19.50;6.85;;;2.10;99.90;;;;;;5013289;28;20028;-72
2022/02/08 08:07:33;;;;;;;16.73;5.97;;;2.10;99.90;;;;;;5012752;28;20057;-72
2022/02/08 08:10:01;;;;;;;14.95;6.13;;;2.20;99.90;;;;;;5010359;28;20415;-72
2022/02/08 08:12:28;;;;;;;14.43;6.30;;;2.10;99.90;;;;;;5021198;28;20132;-72
2022/02/08 08:14:54;;;;;;;17.25;6.10;;;2.10;99.90;;;;;;5015005;28;20058;-72
2022/02/08 08:19:47;;;;;;;18.55;7.03;;;2.20;99.90;;;;;;5028088;28;20109;-72
2022/02/08 08:22:13;;;;;;;18.65;6.38;;;2.20;99.90;;;;;;5011926;28;20181;-72
2022/02/08 08:24:39;;;;;;;20.20;7.50;;;2.20;99.90;;;;;;4998924;28;20586;-72
2022/02/08 08:27:05;;;;;;;16.52;7.05;;;2.20;99.90;;;;;;5011981;28;20048;-72
2022/02/08 08:29:31;;;;;;;20.65;7.13;;;2.30;99.90;;;;;;5030656;28;20025;-72
2022/02/08 08:31:56;;;;;;;13.55;7.10;;;2.30;99.90;;;;;;5011824;28;20033;-72
2022/02/08 08:34:22;;;;;;;13.63;7.35;;;2.30;99.90;;;;;;4998646;28;20031;-72
2022/02/08 08:36:50;;;;;;;46.00;26.90;;;2.30;99.90;;;;;;5011898;28;20033;-72
2022/02/08 08:39:21;;;;;;;32.88;17.88;;;2.30;99.90;;;;;;5012002;28;20037;-72
2022/02/08 08:41:53;;;;;;;93.28;63.38;;;2.40;99.90;;;;;;5011814;28;20033;-72
2022/02/08 08:52:12;;;;;;;21.40;10.85;;;2.40;99.90;;;;;;5009673;28;20400;-72
2022/02/08 08:54:38;;;;;;;17.83;8.63;;;2.50;99.90;;;;;;5000915;28;20344;-72
2022/02/08 08:57:04;;;;;;;14.60;7.05;;;2.50;99.90;;;;;;4998404;28;20022;-71
2022/02/08 08:59:29;;;;;;;14.38;6.78;;;2.50;99.90;;;;;;5011591;28;20098;-72
2022/02/08 09:01:55;;;;;;;15.45;6.80;;;2.50;99.90;;;;;;5014061;28;20041;-72
2022/02/08 09:04:20;;;;;;;11.65;7.13;;;2.60;99.90;;;;;;5027145;28;20033;-72
2022/02/08 09:06:49;;;;;;;13.40;6.90;;;2.60;99.90;;;;;;5019114;28;20423;-72
2022/02/08 09:09:17;;;;;;;15.50;7.22;;;2.60;99.90;;;;;;5022294;28;20095;-71
2022/02/08 09:13:02;;;;;;;16.92;7.47;;;2.70;99.90;;;;;;5047390;28;20487;-72
2022/02/08 09:14:48;;;;;;;16.10;7.90;;;2.70;99.90;;;;;;5006135;28;20119;-72
2022/02/08 09:20:25;;;;;;;11.43;7.30;;;2.70;99.90;;;;;;5002102;28;20036;-72
2022/02/08 09:23:16;;;;;;;10.48;6.85;;;2.70;99.90;;;;;;5002146;28;20022;-72
2022/02/08 09:28:39;;;;;;;9.45;5.88;;;2.80;99.90;;;;;;5002983;28;20033;-72
2022/02/08 09:31:07;;;;;;;14.38;6.70;;;2.90;99.90;;;;;;5022663;28;20036;-72
2022/02/08 09:33:32;;;;;;;11.00;5.88;;;2.90;99.90;;;;;;5030759;28;20021;-72
2022/02/08 09:35:58;;;;;;;7.57;5.50;;;3.00;99.90;;;;;;5023085;28;20476;-72
2022/02/08 09:38:29;;;;;;;7.95;5.50;;;3.00;99.90;;;;;;5026015;28;20030;-72
2022/02/08 09:40:58;;;;;;;8.73;5.47;;;3.10;99.90;;;;;;5017605;28;20053;-72
2022/02/08 09:43:25;;;;;;;8.57;5.30;;;3.10;99.90;;;;;;5013698;28;20036;-72
2022/02/08 09:45:51;;;;;;;10.93;5.55;;;3.10;99.90;;;;;;5013667;28;20466;-72
2022/02/08 09:48:28;;;;;;;11.18;6.43;;;3.10;99.90;;;;;;5013215;28;20033;-72
2022/02/08 09:50:54;;;;;;;9.35;6.93;;;3.10;99.90;;;;;;5015042;28;20057;-72
2022/02/08 09:53:29;;;;;;;10.57;7.75;;;3.10;99.90;;;;;;5015196;28;20566;-72
2022/02/08 09:55:54;;;;;;;9.37;7.00;;;3.20;99.90;;;;;;5023278;28;20022;-72
2022/02/08 09:58:20;;;;;;;12.98;7.30;;;3.20;99.90;;;;;;5013754;28;20049;-72
2022/02/08 10:00:45;;;;;;;9.77;6.78;;;3.20;99.90;;;;;;5002073;28;20030;-72
2022/02/08 10:03:12;;;;;;;12.75;7.45;;;3.20;99.90;;;;;;5013544;28;20022;-72
2022/02/08 10:05:58;;;;;;;12.43;8.07;;;3.20;99.90;;;;;;4994957;28;20503;-72
2022/02/08 10:08:23;;;;;;;11.63;7.30;;;3.30;99.90;;;;;;5003984;28;20122;-72
2022/02/08 10:10:50;;;;;;;11.18;7.20;;;3.30;99.90;;;;;;5028305;28;20107;-72
2022/02/08 10:23:57;;;;;;;11.18;7.60;;;3.30;99.90;;;;;;5003581;28;20033;-72
2022/02/08 10:26:38;;;;;;;9.63;7.20;;;3.30;99.90;;;;;;5011535;28;20109;-72
2022/02/08 10:29:38;;;;;;;10.40;7.70;;;3.30;99.90;;;;;;5014024;28;20053;-72
2022/02/08 10:37:35;;;;;;;10.52;7.95;;;3.40;99.90;;;;;;4999171;28;20400;-72
2022/02/08 10:38:10;;;;;;;11.45;6.43;;;3.40;99.90;;;;;;5023463;28;20446;-72
2022/02/08 10:40:38;;;;;;;10.98;5.93;;;3.50;99.90;;;;;;5018839;28;20030;-73
2022/02/08 10:43:07;;;;;;;13.35;7.18;;;3.50;99.90;;;;;;5013569;28;20026;-72
2022/02/08 10:45:40;;;;;;;8.85;6.10;;;3.70;99.90;;;;;;5013378;28;20038;-72
2022/02/08 10:48:10;;;;;;;12.05;6.10;;;3.60;99.90;;;;;;5013976;28;20395;-72
2022/02/08 10:50:41;;;;;;;12.80;6.45;;;3.60;99.90;;;;;;5005978;28;20061;-72
2022/02/08 10:53:08;;;;;;;11.55;6.45;;;3.70;99.90;;;;;;5012180;28;20100;-72
2022/02/08 10:58:27;;;;;;;14.43;6.50;;;3.70;99.90;;;;;;5001638;28;20097;-72
2022/02/08 11:01:10;;;;;;;12.43;5.70;;;3.80;99.90;;;;;;5011122;28;20029;-72
2022/02/08 11:03:53;;;;;;;15.20;6.47;;;3.60;99.90;;;;;;5024237;28;20053;-72
2022/02/08 11:06:30;;;;;;;13.32;5.72;;;3.70;99.90;;;;;;5004621;28;20041;-72
2022/02/08 11:22:51;;;;;;;14.43;6.22;;;3.80;99.90;;;;;;5012651;28;20022;-72
2022/02/08 11:25:23;;;;;;;15.43;5.90;;;3.90;99.90;;;;;;5018918;28;20029;-72
2022/02/08 11:27:54;;;;;;;9.60;5.18;;;3.80;99.90;;;;;;5018918;28;20029;-72
2022/02/08 11:30:37;;;;;;;15.93;5.72;;;3.90;99.90;;;;;;5011468;28;20032;-72
2022/02/08 11:33:28;;;;;;;13.82;5.57;;;4.00;99.90;;;;;;5012726;28;20030;-72
2022/02/08 11:39:17;;;;;;;11.73;5.03;;;4.10;99.90;;;;;;5019653;28;20028;-72
2022/02/08 11:47:35;;;;;;;8.98;4.78;;;4.00;99.90;;;;;;5009265;28;20044;-72
2022/02/08 11:52:52;;;;;;;10.18;4.38;;;4.10;99.90;;;;;;5016919;28;20060;-72
2022/02/08 11:55:44;;;;;;;10.35;5.55;;;4.00;99.90;;;;;;5011050;28;20021;-72
2022/02/08 11:58:58;;;;;;;9.88;5.03;;;4.10;99.90;;;;;;5011992;28;20046;-72
2022/02/08 12:01:07;;;;;;;11.65;6.50;;;4.10;99.90;;;;;;4998235;28;20177;-72
2022/02/08 12:06:53;;;;;;;9.20;4.43;;;4.10;99.90;;;;;;5012408;28;20029;-72
2022/02/08 12:09:07;;;;;;;13.13;6.00;;;4.10;99.90;;;;;;5009430;28;20042;-72
2022/02/08 12:11:59;;;;;;;12.60;4.93;;;4.20;99.90;;;;;;5011989;28;20574;-72
2022/02/08 12:33:23;;;;;;;10.77;4.65;;;4.30;99.90;;;;;;5005907;28;20030;-73
2022/02/08 12:55:40;;;;;;;12.48;5.85;;;4.30;99.90;;;;;;5002496;28;20026;-73
2022/02/08 12:58:29;;;;;;;13.32;5.80;;;4.30;99.90;;;;;;5014610;28;20022;-73
2022/02/08 13:03:54;;;;;;;12.60;5.47;;;4.30;99.90;;;;;;5015498;28;20112;-72
2022/02/08 14:08:26;;;;;;;8.23;4.03;;;4.80;99.90;;;;;;5013747;28;20034;-72
2022/02/08 14:13:54;;;;;;;6.30;3.80;;;4.80;99.90;;;;;;5011341;28;20101;-72
2022/02/08 14:19:29;;;;;;;6.13;4.20;;;4.80;99.90;;;;;;4995979;28;20041;-72
2022/02/08 14:30:02;;;;;;;7.15;3.63;;;4.90;99.90;;;;;;5014433;28;20037;-72
2022/02/08 14:32:41;;;;;;;7.50;3.80;;;4.90;99.90;;;;;;5018227;28;20121;-72
2022/02/08 14:35:33;;;;;;;9.48;3.58;;;4.90;99.90;;;;;;5013693;28;20426;-72
2022/02/08 14:49:19;;;;;;;6.65;3.70;;;5.00;99.90;;;;;;4994221;28;20202;-72
2022/02/08 15:13:03;;;;;;;7.53;3.85;;;5.00;99.90;;;;;;5023210;28;20065;-73
2022/02/08 15:18:03;;;;;;;6.13;4.00;;;5.00;99.90;;;;;;5016877;28;20026;-73
2022/02/08 15:20:29;;;;;;;8.25;4.60;;;5.00;99.90;;;;;;5022974;28;20099;-73
2022/02/08 15:23:01;;;;;;;7.65;4.65;;;5.00;99.90;;;;;;5020986;28;20031;-73
2022/02/08 15:25:29;;;;;;;12.23;7.15;;;5.00;99.90;;;;;;5019500;28;20445;-73
2022/02/08 15:28:00;;;;;;;9.25;7.25;;;5.00;99.90;;;;;;5012773;28;20022;-73
2022/02/08 15:30:26;;;;;;;7.57;5.03;;;4.90;99.90;;;;;;5012818;28;20022;-73
2022/02/08 15:32:51;;;;;;;10.50;5.93;;;5.10;99.90;;;;;;5012684;28;20520;-73
2022/02/08 15:35:17;;;;;;;10.57;5.20;;;4.90;99.90;;;;;;5012750;28;20026;-73
2022/02/08 15:37:43;;;;;;;12.63;7.13;;;4.90;99.90;;;;;;5012510;28;20060;-73
2022/02/08 15:40:10;;;;;;;12.07;6.80;;;4.90;99.90;;;;;;5012686;28;20014;-73
2022/02/08 15:42:39;;;;;;;12.20;7.72;;;4.80;99.90;;;;;;5012251;28;20060;-72
2022/02/08 15:45:26;;;;;;;13.90;8.52;;;4.90;99.90;;;;;;5011644;28;20403;-76
2022/02/08 15:47:54;;;;;;;14.32;8.85;;;4.80;99.90;;;;;;5006740;28;20072;-74
2022/02/08 15:50:28;;;;;;;17.63;9.90;;;4.80;99.90;;;;;;5005083;28;20117;-74
2022/02/08 16:01:03;;;;;;;20.08;15.43;;;4.80;99.90;;;;;;5001629;28;20048;-73
2022/02/08 16:08:46;;;;;;;13.10;9.70;;;4.80;99.90;;;;;;5017476;28;20025;-73
2022/02/08 16:13:53;;;;;;;11.48;8.90;;;4.80;99.90;;;;;;5012220;28;20026;-73
2022/02/08 16:17:14;;;;;;;13.57;10.95;;;4.70;99.90;;;;;;5010681;28;20033;-73
2022/02/08 16:24:40;;;;;;;14.30;8.40;;;4.70;99.90;;;;;;5023586;28;20472;-73
2022/02/08 16:59:17;;;;;;;7.93;7.15;;;4.90;99.90;;;;;;5020186;28;20488;-73
2022/02/08 17:01:42;;;;;;;6.63;5.13;;;4.90;99.90;;;;;;5011464;28;20018;-73
2022/02/08 17:04:09;;;;;;;6.53;5.13;;;4.90;99.90;;;;;;5023956;28;20033;-73
2022/02/08 17:06:34;;;;;;;6.20;4.93;;;4.80;99.90;;;;;;5024263;28;20080;-73
2022/02/08 17:11:38;;;;;;;6.65;4.50;;;4.80;99.90;;;;;;5015649;28;20038;-73
2022/02/08 17:14:28;;;;;;;6.40;4.38;;;4.80;99.90;;;;;;5011603;28;20053;-73
2022/02/08 17:17:17;;;;;;;7.35;4.63;;;4.90;99.90;;;;;;5008648;28;20101;-73
2022/02/08 17:45:02;;;;;;;8.73;7.40;;;4.80;99.90;;;;;;5024968;28;20383;-73
2022/02/08 17:46:50;;;;;;;12.85;9.20;;;4.80;99.90;;;;;;5019722;28;20068;-73
2022/02/08 17:49:16;;;;;;;10.90;9.20;;;4.90;99.90;;;;;;5016909;28;20032;-73
2022/02/08 17:51:42;;;;;;;11.35;8.70;;;4.70;99.90;;;;;;5031428;28;20033;-73
2022/02/08 17:54:07;;;;;;;11.82;8.80;;;4.90;99.90;;;;;;5022073;28;20037;-73
2022/02/08 17:56:33;;;;;;;9.60;7.72;;;4.70;99.90;;;;;;5002484;28;20109;-73
2022/02/08 17:58:58;;;;;;;17.45;11.05;;;4.70;99.90;;;;;;5013862;28;20028;-74
2022/02/08 18:01:25;;;;;;;11.35;9.75;;;4.70;99.90;;;;;;5013657;28;20404;-73
2022/02/08 18:03:50;;;;;;;12.55;10.05;;;4.80;99.90;;;;;;5016930;28;20495;-74
2022/02/08 18:06:16;;;;;;;12.55;9.88;;;4.80;99.90;;;;;;5011929;28;20034;-73
2022/02/08 18:08:42;;;;;;;18.30;13.85;;;4.80;99.90;;;;;;5014322;28;20101;-73
2022/02/08 18:11:09;;;;;;;16.27;14.50;;;4.80;99.90;;;;;;5012800;28;20484;-73
2022/02/08 18:13:39;;;;;;;19.92;16.40;;;4.80;99.90;;;;;;5014266;28;20025;-73
2022/02/08 18:16:05;;;;;;;11.77;10.45;;;4.60;99.90;;;;;;5014073;28;20105;-74
2022/02/08 18:18:36;;;;;;;14.93;11.70;;;4.80;99.90;;;;;;5014234;28;20030;-73
2022/02/08 18:21:38;;;;;;;14.25;10.52;;;4.80;99.90;;;;;;5016883;28;20029;-74
2022/02/08 19:07:07;;;;;;;17.38;15.57;;;4.80;99.90;;;;;;5006291;28;20057;-73
2022/02/08 19:12:17;;;;;;;21.17;18.38;;;4.80;99.90;;;;;;5018535;28;20048;-73
2022/02/08 19:17:33;;;;;;;21.25;18.90;;;4.90;99.90;;;;;;5024188;28;20022;-74
2022/02/08 19:20:36;;;;;;;17.73;15.77;;;4.80;99.90;;;;;;5022656;28;20056;-73
2022/02/08 19:22:50;;;;;;;19.75;16.67;;;4.80;99.90;;;;;;5020266;28;20088;-73
2022/02/08 19:25:16;;;;;;;19.95;17.83;;;4.80;99.90;;;;;;5016745;28;20030;-73
2022/02/08 19:27:43;;;;;;;20.98;17.50;;;4.80;99.90;;;;;;5011753;28;20087;-74
2022/02/08 19:30:10;;;;;;;23.48;20.23;;;5.00;99.90;;;;;;5012164;28;20084;-73
2022/02/08 19:32:36;;;;;;;21.73;18.90;;;4.80;99.90;;;;;;5013469;28;20033;-73
2022/02/08 19:35:03;;;;;;;20.52;18.17;;;4.90;99.90;;;;;;5013653;28;20546;-73
2022/02/08 19:37:29;;;;;;;23.52;20.08;;;4.80;99.90;;;;;;5028145;28;20394;-73
2022/02/08 19:39:55;;;;;;;29.63;22.50;;;4.80;99.90;;;;;;5013710;28;20365;-73
2022/02/08 19:42:21;;;;;;;24.38;21.67;;;4.80;99.90;;;;;;5023672;28;20025;-73
2022/02/08 19:44:54;;;;;;;25.45;19.15;;;4.70;99.90;;;;;;5012232;28;20117;-73
2022/02/08 19:47:20;;;;;;;24.60;20.40;;;4.80;99.90;;;;;;5011467;28;20037;-73
2022/02/08 19:49:45;;;;;;;23.08;20.45;;;4.80;99.90;;;;;;5013262;28;20080;-73
2022/02/08 19:52:11;;;;;;;29.20;23.52;;;4.80;99.90;;;;;;5013091;28;20531;-73
2022/02/08 19:54:48;;;;;;;33.28;26.58;;;4.80;99.90;;;;;;5013257;28;20022;-73
2022/02/08 19:57:20;;;;;;;32.15;28.35;;;5.00;99.90;;;;;;5025026;28;20678;-73
2022/02/08 19:59:49;;;;;;;25.15;20.88;;;4.70;99.90;;;;;;5017254;28;20065;-73
2022/02/08 20:02:16;;;;;;;21.63;18.48;;;4.80;99.90;;;;;;5021185;28;20053;-73
2022/02/08 20:04:46;;;;;;;18.80;16.80;;;4.80;99.90;;;;;;5023541;28;20036;-73
2022/02/08 20:07:12;;;;;;;18.90;16.92;;;4.90;99.90;;;;;;5013746;28;20036;-73
2022/02/08 20:09:38;;;;;;;19.00;16.42;;;4.80;99.90;;;;;;5013451;28;20496;-73
2022/02/08 20:12:04;;;;;;;19.13;15.82;;;4.70;99.90;;;;;;5013020;28;20038;-75
2022/02/08 20:14:30;;;;;;;21.60;18.70;;;4.70;99.90;;;;;;5016383;28;20379;-73
2022/02/08 20:16:56;;;;;;;21.85;19.73;;;4.70;99.90;;;;;;5019651;28;20049;-73
2022/02/08 20:19:23;;;;;;;24.58;21.15;;;4.80;99.90;;;;;;5011946;28;20046;-76
2022/02/08 20:21:50;;;;;;;22.17;19.90;;;5.00;99.90;;;;;;5012847;28;20032;-73
2022/02/08 20:24:17;;;;;;;27.20;20.65;;;4.80;99.90;;;;;;5006011;28;20022;-73
2022/02/08 20:29:15;;;;;;;22.35;18.65;;;4.80;99.90;;;;;;5013009;28;20030;-73